createdAt,value
2018-02-10T00:00:45.817Z,81.5
2018-02-10T00:01:48.241Z,81.6
2018-02-10T00:02:50.949Z,81.6
2018-02-10T00:03:53.641Z,81.7
2018-02-10T00:04:56.071Z,81.7
2018-02-10T00:05:58.480Z,81.6
2018-02-10T00:07:00.903Z,81.3
2018-02-10T00:08:03.334Z,81.3
2018-02-10T00:09:05.750Z,81.4
2018-02-10T00:10:08.176Z,81.2
2018-02-10T00:11:10.599Z,81.5
2018-02-10T00:12:13.018Z,81.6
2018-02-10T00:13:15.449Z,81.5
2018-02-10T00:14:17.864Z,81.4
2018-02-10T00:15:20.275Z,81.3
2018-02-10T00:16:22.703Z,81.4
2018-02-10T00:17:25.125Z,81.4
2018-02-10T00:18:27.544Z,81.6
2018-02-10T00:19:29.975Z,81.6
2018-02-10T00:20:32.668Z,81.7
2018-02-10T00:21:35.088Z,81.7
2018-02-10T00:22:37.521Z,81.6
2018-02-10T00:23:39.934Z,81.5
2018-02-10T00:24:42.348Z,81.5
2018-02-10T00:25:44.775Z,81.4
2018-02-10T00:26:47.480Z,81.4
2018-02-10T00:27:49.912Z,81.2
2018-02-10T00:28:52.339Z,81.4
2018-02-10T00:29:54.746Z,81.3
2018-02-10T00:30:57.169Z,81.4
2018-02-10T00:31:59.596Z,81.3
2018-02-10T00:33:02.015Z,81.4
2018-02-10T00:34:04.726Z,81.4
2018-02-10T00:35:07.148Z,81.5
2018-02-10T00:36:09.567Z,81.5
2018-02-10T00:37:11.981Z,81.5
2018-02-10T00:38:14.408Z,81.5
2018-02-10T00:39:16.831Z,81.6
2018-02-10T00:40:19.260Z,81.7
2018-02-10T00:41:21.664Z,81.6
2018-02-10T00:42:24.085Z,81.6
2018-02-10T00:43:26.789Z,81.6
2018-02-10T00:44:29.218Z,81.5
2018-02-10T00:45:31.631Z,81.5
2018-02-10T00:46:34.050Z,81.7
2018-02-10T00:47:36.470Z,81.7
2018-02-10T00:48:38.902Z,81.8
2018-02-10T00:49:41.316Z,81.7
2018-02-10T00:50:43.736Z,81.7
2018-02-10T00:51:46.154Z,81.6
2018-02-10T00:52:48.571Z,81.6
2018-02-10T00:53:50.987Z,81.6
2018-02-10T00:54:53.420Z,81.6
2018-02-10T00:55:55.833Z,81.7
2018-02-10T00:56:58.258Z,81.7
2018-02-10T00:58:00.685Z,81.5
2018-02-10T00:59:03.399Z,81.6
2018-02-10T01:00:05.820Z,81.4
2018-02-10T01:01:08.233Z,81.5
2018-02-10T01:02:10.924Z,81.4
2018-02-10T01:03:13.357Z,81.5
2018-02-10T01:04:15.780Z,81.5
2018-02-10T01:05:18.184Z,81.6
2018-02-10T01:06:20.613Z,81.6
2018-02-10T01:07:23.034Z,81.6
2018-02-10T01:08:25.453Z,81.6
2018-02-10T01:09:27.874Z,81.7
2018-02-10T01:10:30.297Z,81.7
2018-02-10T01:11:32.706Z,81.7
2018-02-10T01:12:35.137Z,81.6
2018-02-10T01:13:37.553Z,81.6
2018-02-10T01:14:39.968Z,81.7
2018-02-10T01:15:42.394Z,81.7
2018-02-10T01:16:44.829Z,81.8
2018-02-10T01:17:47.524Z,81.7
2018-02-10T01:18:49.954Z,81.5
2018-02-10T01:19:52.362Z,81.7
2018-02-10T01:20:54.793Z,81.8
2018-02-10T01:21:57.209Z,81.8
2018-02-10T01:22:59.636Z,81.9
2018-02-10T01:24:02.057Z,82.1
2018-02-10T01:25:04.489Z,82
2018-02-10T01:26:06.906Z,81.9
2018-02-10T01:27:09.337Z,81.7
2018-02-10T01:28:11.746Z,81.6
2018-02-10T01:29:14.459Z,81.6
2018-02-10T01:30:16.882Z,81.8
2018-02-10T01:31:19.294Z,81.9
2018-02-10T01:32:21.712Z,81.9
2018-02-10T01:33:24.140Z,81.9
2018-02-10T01:34:26.865Z,81.7
2018-02-10T01:35:29.289Z,81.7
2018-02-10T01:36:31.707Z,81.7
2018-02-10T01:37:34.410Z,81.8
2018-02-10T01:38:36.846Z,82
2018-02-10T01:39:39.550Z,82.1
2018-02-10T01:40:41.966Z,82.1
2018-02-10T01:41:44.387Z,82.2
2018-02-10T01:42:46.808Z,82.2
2018-02-10T01:43:49.233Z,82.1
2018-02-10T01:44:51.658Z,82.1
2018-02-10T01:45:54.073Z,82
2018-02-10T01:46:56.489Z,82
2018-02-10T01:47:58.925Z,81.7
2018-02-10T01:49:01.640Z,81.7
2018-02-10T01:50:04.061Z,81.7
2018-02-10T01:51:06.480Z,81.7
2018-02-10T01:52:08.952Z,81.7
2018-02-10T01:53:11.620Z,81.6
2018-02-10T01:54:14.046Z,81.6
2018-02-10T01:55:16.747Z,81.6
2018-02-10T01:56:19.164Z,81.7
2018-02-10T01:57:21.862Z,81.7
2018-02-10T01:58:24.288Z,81.7
2018-02-10T01:59:26.705Z,81.7
2018-02-10T02:00:29.114Z,81.6
2018-02-10T02:01:31.535Z,81.6
2018-02-10T02:02:33.973Z,81.5
2018-02-10T02:03:36.389Z,81.5
2018-02-10T02:04:38.817Z,81.5
2018-02-10T02:05:41.236Z,81.4
2018-02-10T02:06:43.657Z,81.5
2018-02-10T02:07:46.084Z,81.5
2018-02-10T02:08:48.501Z,81.4
2018-02-10T02:09:50.918Z,81.4
2018-02-10T02:10:53.347Z,81.3
2018-02-10T02:11:55.760Z,81.3
2018-02-10T02:12:58.192Z,81.3
2018-02-10T02:14:00.605Z,81.2
2018-02-10T02:15:03.024Z,81.3
2018-02-10T02:16:05.722Z,81.4
2018-02-10T02:17:08.142Z,81.5
2018-02-10T02:18:10.557Z,81.5
2018-02-10T02:19:12.994Z,81.4
2018-02-10T02:20:15.413Z,81.3
2018-02-10T02:21:17.825Z,81.3
2018-02-10T02:22:20.248Z,81.3
2018-02-10T02:23:22.667Z,81.5
2018-02-10T02:24:25.087Z,81.5
2018-02-10T02:25:27.509Z,81.6
2018-02-10T02:26:30.496Z,81.5
2018-02-10T02:27:32.921Z,81.4
2018-02-10T02:28:35.368Z,81.3
2018-02-10T02:29:37.776Z,81.3
2018-02-10T02:30:40.503Z,81.3
2018-02-10T02:31:42.924Z,81.4
2018-02-10T02:32:45.660Z,81.5
2018-02-10T02:33:48.065Z,81.5
2018-02-10T02:34:50.485Z,81.6
2018-02-10T02:35:53.195Z,81.6
2018-02-10T02:36:55.610Z,81.4
2018-02-10T02:37:58.025Z,81.4
2018-02-10T02:39:00.740Z,81.4
2018-02-10T02:40:03.157Z,81.5
2018-02-10T02:41:05.877Z,81.5
2018-02-10T02:42:08.305Z,81.5
2018-02-10T02:43:10.715Z,81.5
2018-02-10T02:44:13.139Z,81.4
2018-02-10T02:45:15.567Z,81.3
2018-02-10T02:46:17.985Z,81.3
2018-02-10T02:47:20.410Z,81.3
2018-02-10T02:48:23.113Z,81.3
2018-02-10T02:49:25.533Z,81.4
2018-02-10T02:50:28.244Z,81.4
2018-02-10T02:51:30.957Z,81.4
2018-02-10T02:52:33.373Z,81.3
2018-02-10T02:53:35.788Z,81.4
2018-02-10T02:54:38.210Z,81.3
2018-02-10T02:55:40.631Z,81.4
2018-02-10T02:56:43.060Z,81.2
2018-02-10T02:57:45.762Z,81.3
2018-02-10T02:58:48.193Z,81.3
2018-02-10T02:59:50.613Z,81.2
2018-02-10T03:00:53.051Z,81.2
2018-02-10T03:01:55.466Z,81.2
2018-02-10T03:02:58.178Z,81.2
2018-02-10T03:04:00.599Z,81.2
2018-02-10T03:05:03.024Z,81.2
2018-02-10T03:06:05.440Z,81.1
2018-02-10T03:07:07.875Z,80.9
2018-02-10T03:08:10.301Z,80.7
2018-02-10T03:09:12.997Z,80.7
2018-02-10T03:10:15.417Z,80.7
2018-02-10T03:11:17.841Z,80.7
2018-02-10T03:12:20.259Z,80.5
2018-02-10T03:13:22.680Z,80.5
2018-02-10T03:14:25.089Z,80.6
2018-02-10T03:15:27.788Z,80.8
2018-02-10T03:16:30.223Z,80.9
2018-02-10T03:17:32.628Z,81
2018-02-10T03:18:35.067Z,81.1
2018-02-10T03:19:37.478Z,81
2018-02-10T03:20:39.898Z,81.1
2018-02-10T03:21:42.317Z,81
2018-02-10T03:22:44.736Z,80.9
2018-02-10T03:23:47.152Z,81.1
2018-02-10T03:24:49.870Z,81
2018-02-10T03:25:52.285Z,81.1
2018-02-10T03:26:54.711Z,80.8
2018-02-10T03:27:57.137Z,80.8
2018-02-10T03:28:59.552Z,80.9
2018-02-10T03:30:01.966Z,80.8
2018-02-10T03:31:04.391Z,80.9
2018-02-10T03:32:06.804Z,80.8
2018-02-10T03:33:09.224Z,80.8
2018-02-10T03:34:11.641Z,80.6
2018-02-10T03:35:14.055Z,80.6
2018-02-10T03:36:16.484Z,80.5
2018-02-10T03:37:18.901Z,80.6
2018-02-10T03:38:21.324Z,81
2018-02-10T03:39:24.027Z,81.1
2018-02-10T03:40:26.446Z,81.1
2018-02-10T03:41:28.872Z,81.1
2018-02-10T03:42:31.280Z,81.1
2018-02-10T03:43:33.694Z,81.2
2018-02-10T03:44:36.109Z,81.1
2018-02-10T03:45:38.526Z,81.1
2018-02-10T03:46:40.944Z,81
2018-02-10T03:47:43.366Z,81
2018-02-10T03:48:46.079Z,80.9
2018-02-10T03:49:48.499Z,80.9
2018-02-10T03:50:50.924Z,81
2018-02-10T03:51:53.328Z,81.1
2018-02-10T03:52:55.749Z,81
2018-02-10T03:53:58.172Z,81
2018-02-10T03:55:00.946Z,80.9
2018-02-10T03:56:03.315Z,80.9
2018-02-10T03:57:05.734Z,80.8
2018-02-10T03:58:08.779Z,80.8
2018-02-10T03:59:11.204Z,80.8
2018-02-10T04:00:13.630Z,80.8
2018-02-10T04:01:16.040Z,80.9
2018-02-10T04:02:18.453Z,80.9
2018-02-10T04:03:20.875Z,81.1
2018-02-10T04:04:23.305Z,81.1
2018-02-10T04:05:25.723Z,81.1
2018-02-10T04:06:28.145Z,81.1
2018-02-10T04:07:30.835Z,81
2018-02-10T04:08:33.549Z,80.9
2018-02-10T04:09:35.966Z,80.8
2018-02-10T04:10:38.667Z,80.8
2018-02-10T04:11:41.088Z,80.9
2018-02-10T04:12:43.798Z,80.9
2018-02-10T04:13:46.216Z,80.8
2018-02-10T04:14:48.645Z,81
2018-02-10T04:15:51.060Z,81
2018-02-10T04:16:53.489Z,80.8
2018-02-10T04:17:55.895Z,80.8
2018-02-10T04:18:58.318Z,80.9
2018-02-10T04:20:00.742Z,80.8
2018-02-10T04:21:03.162Z,80.8
2018-02-10T04:22:05.582Z,80.9
2018-02-10T04:23:08.012Z,80.9
2018-02-10T04:24:10.418Z,80.8
2018-02-10T04:25:12.854Z,80.8
2018-02-10T04:26:15.270Z,80.8
2018-02-10T04:27:17.681Z,80.7
2018-02-10T04:28:20.100Z,80.7
2018-02-10T04:29:22.519Z,80.8
2018-02-10T04:30:24.937Z,80.7
2018-02-10T04:31:27.344Z,80.7
2018-02-10T04:32:30.059Z,80.7
2018-02-10T04:33:32.474Z,80.7
2018-02-10T04:34:34.902Z,80.7
2018-02-10T04:35:37.318Z,80.7
2018-02-10T04:36:40.022Z,80.7
2018-02-10T04:37:42.440Z,80.5
2018-02-10T04:38:44.859Z,80.5
2018-02-10T04:39:47.266Z,80.5
2018-02-10T04:40:49.687Z,80.6
2018-02-10T04:41:52.104Z,80.8
2018-02-10T04:42:54.814Z,80.8
2018-02-10T04:43:57.229Z,80.8
2018-02-10T04:44:59.646Z,80.7
2018-02-10T04:46:02.066Z,80.7
2018-02-10T04:47:04.492Z,80.7
2018-02-10T04:48:06.916Z,80.8
2018-02-10T04:49:09.331Z,80.9
2018-02-10T04:50:11.756Z,80.7
2018-02-10T04:51:14.464Z,80.7
2018-02-10T04:52:16.880Z,80.8
2018-02-10T04:53:19.882Z,80.8
2018-02-10T04:54:22.302Z,80.7
2018-02-10T04:55:24.718Z,80.7
2018-02-10T04:56:27.146Z,80.8
2018-02-10T04:57:29.565Z,80.9
2018-02-10T04:58:31.967Z,80.9
2018-02-10T04:59:34.398Z,80.9
2018-02-10T05:00:36.816Z,80.8
2018-02-10T05:01:39.517Z,80.8
2018-02-10T05:02:41.932Z,80.8
2018-02-10T05:03:44.352Z,80.9
2018-02-10T05:04:46.768Z,80.7
2018-02-10T05:05:49.176Z,80.7
2018-02-10T05:06:51.594Z,80.8
2018-02-10T05:07:54.009Z,80.8
2018-02-10T05:08:56.437Z,80.8
2018-02-10T05:09:58.859Z,80.8
2018-02-10T05:11:01.590Z,80.9
2018-02-10T05:12:04.014Z,80.9
2018-02-10T05:13:06.445Z,80.8
2018-02-10T05:14:08.861Z,80.8
2018-02-10T05:15:11.284Z,80.8
2018-02-10T05:16:13.709Z,80.8
2018-02-10T05:17:16.126Z,80.7
2018-02-10T05:18:18.540Z,80.7
2018-02-10T05:19:20.951Z,80.7
2018-02-10T05:20:23.363Z,80.8
2018-02-10T05:21:25.778Z,80.8
2018-02-10T05:22:28.203Z,80.7
2018-02-10T05:23:30.615Z,80.6
2018-02-10T05:24:33.029Z,80.6
2018-02-10T05:25:35.451Z,80.8
2018-02-10T05:26:37.874Z,80.7
2018-02-10T05:27:40.296Z,80.8
2018-02-10T05:28:42.717Z,80.8
2018-02-10T05:29:45.125Z,80.8
2018-02-10T05:30:47.544Z,80.8
2018-02-10T05:31:49.968Z,80.9
2018-02-10T05:32:52.666Z,80.8
2018-02-10T05:33:55.082Z,80.7
2018-02-10T05:34:57.795Z,80.8
2018-02-10T05:36:00.511Z,80.9
2018-02-10T05:37:02.914Z,81
2018-02-10T05:38:05.634Z,81.1
2018-02-10T05:39:08.041Z,81.1
2018-02-10T05:40:10.750Z,81.1
2018-02-10T05:41:13.176Z,81.1
2018-02-10T05:42:15.587Z,81
2018-02-10T05:43:18.287Z,81
2018-02-10T05:44:20.710Z,81
2018-02-10T05:45:23.120Z,80.9
2018-02-10T05:46:25.840Z,80.9
2018-02-10T05:47:28.255Z,80.8
2018-02-10T05:48:30.680Z,80.9
2018-02-10T05:49:33.091Z,81
2018-02-10T05:50:35.506Z,81
2018-02-10T05:51:37.923Z,81.1
2018-02-10T05:52:40.347Z,81.1
2018-02-10T05:53:42.758Z,81.1
2018-02-10T05:54:45.175Z,81
2018-02-10T05:55:47.597Z,81.1
2018-02-10T05:56:50.022Z,81.2
2018-02-10T05:57:52.710Z,81.1
2018-02-10T05:58:55.129Z,81.1
2018-02-10T05:59:57.547Z,81
2018-02-10T06:00:59.967Z,80.9
2018-02-10T06:02:02.379Z,80.8
2018-02-10T06:03:04.801Z,80.8
2018-02-10T06:04:07.516Z,81
2018-02-10T06:05:10.214Z,81.1
2018-02-10T06:06:12.632Z,81.1
2018-02-10T06:07:15.336Z,81
2018-02-10T06:08:17.753Z,81.1
2018-02-10T06:09:20.457Z,81
2018-02-10T06:10:22.870Z,81
2018-02-10T06:11:25.284Z,80.9
2018-02-10T06:12:27.985Z,80.9
2018-02-10T06:13:30.407Z,81
2018-02-10T06:14:32.811Z,80.9
2018-02-10T06:15:35.229Z,80.9
2018-02-10T06:16:37.932Z,81
2018-02-10T06:17:40.354Z,81
2018-02-10T06:18:43.049Z,80.9
2018-02-10T06:19:45.456Z,80.9
2018-02-10T06:20:47.875Z,80.7
2018-02-10T06:21:50.292Z,80.7
2018-02-10T06:22:52.714Z,80.8
2018-02-10T06:23:55.128Z,80.9
2018-02-10T06:24:57.544Z,80.9
2018-02-10T06:25:59.962Z,81
2018-02-10T06:27:02.394Z,81
2018-02-10T06:28:04.807Z,81
2018-02-10T06:29:07.218Z,80.9
2018-02-10T06:30:09.632Z,80.8
2018-02-10T06:31:12.063Z,80.9
2018-02-10T06:32:14.484Z,80.9
2018-02-10T06:33:17.193Z,80.9
2018-02-10T06:34:19.605Z,80.9
2018-02-10T06:35:22.024Z,80.9
2018-02-10T06:36:24.434Z,81
2018-02-10T06:37:26.856Z,81
2018-02-10T06:38:29.266Z,80.9
2018-02-10T06:39:31.985Z,80.6
2018-02-10T06:40:34.405Z,80.7
2018-02-10T06:41:36.824Z,80.7
2018-02-10T06:42:39.248Z,80.7
2018-02-10T06:43:42.004Z,80.7
2018-02-10T06:44:44.715Z,80.8
2018-02-10T06:45:47.135Z,80.8
2018-02-10T06:46:49.548Z,80.6
2018-02-10T06:47:52.246Z,80.7
2018-02-10T06:48:54.669Z,80.6
2018-02-10T06:49:57.092Z,80.7
2018-02-10T06:50:59.787Z,80.8
2018-02-10T06:52:02.220Z,81
2018-02-10T06:53:04.634Z,81
2018-02-10T06:54:07.053Z,81.1
2018-02-10T06:55:09.479Z,81.1
2018-02-10T06:56:11.889Z,81.1
2018-02-10T06:57:14.598Z,81.1
2018-02-10T06:58:17.022Z,81
2018-02-10T06:59:19.724Z,81.1
2018-02-10T07:00:22.140Z,81.1
2018-02-10T07:01:24.560Z,81.2
2018-02-10T07:02:27.282Z,81.2
2018-02-10T07:03:29.692Z,81.3
2018-02-10T07:04:32.113Z,81.3
2018-02-10T07:05:34.532Z,81.3
2018-02-10T07:06:36.946Z,81.4
2018-02-10T07:07:39.367Z,81.5
2018-02-10T07:08:41.786Z,81.6
2018-02-10T07:09:44.193Z,81.5
2018-02-10T07:10:46.625Z,81.4
2018-02-10T07:11:49.343Z,81.5
2018-02-10T07:12:51.762Z,81.4
2018-02-10T07:13:54.462Z,81.5
2018-02-10T07:14:56.872Z,81.5
2018-02-10T07:15:59.285Z,81.7
2018-02-10T07:17:01.715Z,81.7
2018-02-10T07:18:04.133Z,81.7
2018-02-10T07:19:06.850Z,81.7
2018-02-10T07:20:09.263Z,81.7
2018-02-10T07:21:11.683Z,81.8
2018-02-10T07:22:14.387Z,81.9
2018-02-10T07:23:16.812Z,81.9
2018-02-10T07:24:19.217Z,81.9
2018-02-10T07:25:21.635Z,81.9
2018-02-10T07:26:24.055Z,81.9
2018-02-10T07:27:26.481Z,81.8
2018-02-10T07:28:29.176Z,81.9
2018-02-10T07:29:31.585Z,82
2018-02-10T07:30:34.010Z,82
2018-02-10T07:31:36.428Z,82
2018-02-10T07:32:38.846Z,81.9
2018-02-10T07:33:41.268Z,82
2018-02-10T07:34:43.679Z,81.9
2018-02-10T07:35:46.091Z,81.9
2018-02-10T07:36:48.802Z,82
2018-02-10T07:37:51.204Z,82.2
2018-02-10T07:38:53.630Z,82.3
2018-02-10T07:39:56.052Z,82.6
2018-02-10T07:40:58.466Z,82.7
2018-02-10T07:42:00.892Z,82.8
2018-02-10T07:43:03.310Z,82.9
2018-02-10T07:44:06.007Z,83.1
2018-02-10T07:45:08.711Z,83.3
2018-02-10T07:46:11.140Z,83.5
2018-02-10T07:47:13.558Z,83.7
2018-02-10T07:48:15.972Z,83.6
2018-02-10T07:49:18.396Z,83.5
2018-02-10T07:50:20.815Z,83.4
2018-02-10T07:51:23.242Z,83.4
2018-02-10T07:52:25.651Z,83.5
2018-02-10T07:53:28.068Z,83.6
2018-02-10T07:54:30.482Z,83.9
2018-02-10T07:55:32.909Z,83.8
2018-02-10T07:56:35.333Z,83.7
2018-02-10T07:57:37.750Z,83.9
2018-02-10T07:58:40.169Z,84.2
2018-02-10T07:59:42.878Z,84.4
2018-02-10T08:00:45.881Z,84.5
2018-02-10T08:01:48.589Z,84.3
2018-02-10T08:02:50.998Z,84.2
2018-02-10T08:03:53.414Z,84.3
2018-02-10T08:04:55.833Z,84.4
2018-02-10T08:05:58.256Z,84.4
2018-02-10T08:07:00.681Z,84.6
2018-02-10T08:08:03.108Z,84.5
2018-02-10T08:09:05.533Z,84.3
2018-02-10T08:10:07.964Z,84.4
2018-02-10T08:11:10.368Z,84.4
2018-02-10T08:12:12.787Z,84.5
2018-02-10T08:13:15.201Z,84.5
2018-02-10T08:14:17.635Z,84.7
2018-02-10T08:15:20.053Z,85
2018-02-10T08:16:22.754Z,85.1
2018-02-10T08:17:25.170Z,85.2
2018-02-10T08:18:27.598Z,85.4
2018-02-10T08:19:30.018Z,85.7
2018-02-10T08:20:32.721Z,85.6
2018-02-10T08:21:35.131Z,85.5
2018-02-10T08:22:37.552Z,85.8
2018-02-10T08:23:39.975Z,85.9
2018-02-10T08:24:42.409Z,86
2018-02-10T08:25:45.154Z,86.1
2018-02-10T08:26:47.536Z,86.3
2018-02-10T08:27:49.964Z,86.4
2018-02-10T08:28:52.383Z,86.4
2018-02-10T08:29:55.079Z,86.4
2018-02-10T08:30:57.504Z,86.5
2018-02-10T08:31:59.924Z,86.5
2018-02-10T08:33:02.333Z,86.4
2018-02-10T08:34:04.761Z,86.6
2018-02-10T08:35:07.482Z,86.8
2018-02-10T08:36:09.902Z,86.9
2018-02-10T08:37:12.324Z,86.9
2018-02-10T08:38:14.748Z,86.7
2018-02-10T08:39:17.168Z,86.5
2018-02-10T08:40:19.595Z,86.7
2018-02-10T08:41:22.018Z,87
2018-02-10T08:42:24.423Z,87
2018-02-10T08:43:26.861Z,86.8
2018-02-10T08:44:29.565Z,86.8
2018-02-10T08:45:31.989Z,86.5
2018-02-10T08:46:34.419Z,86.5
2018-02-10T08:47:37.115Z,86.4
2018-02-10T08:48:39.534Z,86.4
2018-02-10T08:49:41.973Z,86.6
2018-02-10T08:50:44.399Z,86.7
2018-02-10T08:51:46.815Z,86.7
2018-02-10T08:52:49.522Z,86.5
2018-02-10T08:53:51.945Z,86.7
2018-02-10T08:54:54.373Z,86.8
2018-02-10T08:55:56.807Z,86.6
2018-02-10T08:56:59.220Z,86.4
2018-02-10T08:58:01.637Z,86.6
2018-02-10T08:59:04.066Z,86.8
2018-02-10T09:00:06.496Z,86.8
2018-02-10T09:01:08.909Z,87
2018-02-10T09:02:11.338Z,86.9
2018-02-10T09:03:13.760Z,86.7
2018-02-10T09:04:16.185Z,86.7
2018-02-10T09:05:18.900Z,86.7
2018-02-10T09:06:21.320Z,86.9
2018-02-10T09:07:23.738Z,87
2018-02-10T09:08:26.181Z,86.6
2018-02-10T09:09:28.607Z,86.4
2018-02-10T09:10:31.318Z,86.5
2018-02-10T09:11:33.745Z,86.4
2018-02-10T09:12:36.164Z,86.4
2018-02-10T09:13:38.600Z,86.4
2018-02-10T09:14:41.025Z,86.6
2018-02-10T09:15:43.439Z,86.7
2018-02-10T09:16:45.865Z,86.8
2018-02-10T09:17:48.281Z,87
2018-02-10T09:18:50.711Z,87
2018-02-10T09:19:53.143Z,87.2
2018-02-10T09:20:55.846Z,87.2
2018-02-10T09:21:58.282Z,87.1
2018-02-10T09:23:00.722Z,87
2018-02-10T09:24:03.148Z,86.7
2018-02-10T09:25:05.582Z,86.5
2018-02-10T09:26:08.287Z,86.5
2018-02-10T09:27:10.997Z,86.6
2018-02-10T09:28:13.418Z,86.8
2018-02-10T09:29:15.848Z,86.9
2018-02-10T09:30:18.283Z,87
2018-02-10T09:31:21.013Z,86
2018-02-10T09:32:23.446Z,85.4
2018-02-10T09:33:25.867Z,85.1
2018-02-10T09:34:28.585Z,85.2
2018-02-10T09:35:31.006Z,85.1
2018-02-10T09:36:33.428Z,85.1
2018-02-10T09:37:35.856Z,85
2018-02-10T09:38:38.291Z,84.9
2018-02-10T09:39:40.719Z,84.6
2018-02-10T09:40:43.488Z,84.3
2018-02-10T09:41:45.855Z,84.5
2018-02-10T09:42:48.286Z,84.5
2018-02-10T09:43:50.722Z,84.5
2018-02-10T09:44:53.156Z,83.5
2018-02-10T09:45:55.578Z,83
2018-02-10T09:46:58.006Z,83
2018-02-10T09:48:00.717Z,83.1
2018-02-10T09:49:03.452Z,83.3
2018-02-10T09:50:05.878Z,83.4
2018-02-10T09:51:08.605Z,82.7
2018-02-10T09:52:11.344Z,82.8
2018-02-10T09:53:13.741Z,82.8
2018-02-10T09:54:16.173Z,82.7
2018-02-10T09:55:18.602Z,82.7
2018-02-10T09:56:21.024Z,83.1
2018-02-10T09:57:23.440Z,83.3
2018-02-10T09:58:25.884Z,83.5
2018-02-10T09:59:28.588Z,83.9
2018-02-10T10:00:31.013Z,83.9
2018-02-10T10:01:33.442Z,84
2018-02-10T10:02:35.867Z,83.9
2018-02-10T10:03:38.291Z,83.9
2018-02-10T10:04:40.728Z,83.8
2018-02-10T10:05:43.150Z,84
2018-02-10T10:06:45.587Z,84.1
2018-02-10T10:07:48.031Z,84
2018-02-10T10:08:50.738Z,84.1
2018-02-10T10:09:53.444Z,83.6
2018-02-10T10:10:56.171Z,83.6
2018-02-10T10:11:58.606Z,83.9
2018-02-10T10:13:01.046Z,83.9
2018-02-10T10:14:03.525Z,83.9
2018-02-10T10:15:05.901Z,83.2
2018-02-10T10:16:08.609Z,83.3
2018-02-10T10:17:11.040Z,83.2
2018-02-10T10:18:13.462Z,82.4
2018-02-10T10:19:15.893Z,82.4
2018-02-10T10:20:18.310Z,82.1
2018-02-10T10:21:20.757Z,81.4
2018-02-10T10:22:23.484Z,81.5
2018-02-10T10:23:25.918Z,80.8
2018-02-10T10:24:28.352Z,81.1
2018-02-10T10:25:30.785Z,81.3
2018-02-10T10:26:33.212Z,81.6
2018-02-10T10:27:35.643Z,82.2
2018-02-10T10:28:38.066Z,82.3
2018-02-10T10:29:40.501Z,82.2
2018-02-10T10:30:42.938Z,82.1
2018-02-10T10:31:45.352Z,81.6
2018-02-10T10:32:47.783Z,80.9
2018-02-10T10:33:50.221Z,80.4
2018-02-10T10:34:52.650Z,80.5
2018-02-10T10:35:55.080Z,80.7
2018-02-10T10:36:57.810Z,81
2018-02-10T10:38:00.236Z,81
2018-02-10T10:39:02.678Z,81.4
2018-02-10T10:40:05.113Z,81.7
2018-02-10T10:41:07.534Z,82.1
2018-02-10T10:42:09.967Z,82.1
2018-02-10T10:43:12.393Z,81.8
2018-02-10T10:44:14.830Z,81.7
2018-02-10T10:45:17.258Z,81.3
2018-02-10T10:46:19.677Z,81.1
2018-02-10T10:47:22.112Z,81.3
2018-02-10T10:48:24.544Z,81.1
2018-02-10T10:49:27.263Z,81.2
2018-02-10T10:50:29.694Z,81.2
2018-02-10T10:51:32.121Z,80.5
2018-02-10T10:52:34.553Z,80.6
2018-02-10T10:53:36.997Z,80.6
2018-02-10T10:54:39.432Z,80.6
2018-02-10T10:55:42.138Z,80.7
2018-02-10T10:56:44.564Z,81
2018-02-10T10:57:47.007Z,81.1
2018-02-10T10:58:49.444Z,81
2018-02-10T10:59:51.884Z,80.3
2018-02-10T11:00:54.318Z,79.8
2018-02-10T11:01:56.748Z,79.5
2018-02-10T11:02:59.183Z,79.2
2018-02-10T11:04:01.903Z,79.3
2018-02-10T11:05:04.322Z,79.4
2018-02-10T11:06:06.760Z,79.1
2018-02-10T11:07:09.477Z,78.8
2018-02-10T11:08:11.910Z,79.4
2018-02-10T11:09:14.350Z,79.8
2018-02-10T11:10:16.781Z,79.6
2018-02-10T11:11:19.207Z,79.6
2018-02-10T11:12:21.651Z,79.6
2018-02-10T11:13:24.079Z,79.6
2018-02-10T11:14:26.506Z,79.6
2018-02-10T11:15:28.948Z,79.9
2018-02-10T11:16:31.395Z,80
2018-02-10T11:17:33.832Z,80.3
2018-02-10T11:18:36.273Z,80.4
2018-02-10T11:19:38.690Z,79.9
2018-02-10T11:20:41.123Z,79.3
2018-02-10T11:21:43.564Z,78.6
2018-02-10T11:22:45.995Z,78.3
2018-02-10T11:23:48.423Z,78.7
2018-02-10T11:24:50.854Z,78.8
2018-02-10T11:25:53.290Z,78.7
2018-02-10T11:26:55.723Z,78.8
2018-02-10T11:27:58.155Z,78.8
2018-02-10T11:29:00.607Z,78.8
2018-02-10T11:30:03.039Z,78.6
2018-02-10T11:31:05.476Z,77.9
2018-02-10T11:32:07.905Z,77.8
2018-02-10T11:33:10.327Z,78.2
2018-02-10T11:34:12.769Z,78.6
2018-02-10T11:35:15.203Z,78.4
2018-02-10T11:36:17.623Z,78.5
2018-02-10T11:37:20.373Z,78.2
2018-02-10T11:38:22.801Z,78.1
2018-02-10T11:39:25.245Z,77.6
2018-02-10T11:40:27.688Z,77.3
2018-02-10T11:41:30.119Z,76.3
2018-02-10T11:42:32.551Z,76.1
2018-02-10T11:43:34.995Z,76
2018-02-10T11:44:37.742Z,75.8
2018-02-10T11:45:40.185Z,76
2018-02-10T11:46:42.916Z,76.4
2018-02-10T11:47:45.642Z,76.6
2018-02-10T11:48:48.077Z,76
2018-02-10T11:49:50.514Z,76.1
2018-02-10T11:50:52.940Z,76.1
2018-02-10T11:51:55.379Z,76.1
2018-02-10T11:52:58.098Z,76
2018-02-10T11:54:00.543Z,76.1
2018-02-10T11:55:02.973Z,76.1
2018-02-10T11:56:05.411Z,76.1
2018-02-10T11:57:07.854Z,76.1
2018-02-10T11:58:10.288Z,76.2
2018-02-10T11:59:13.063Z,76.2
2018-02-10T12:00:15.490Z,75.6
2018-02-10T12:01:17.938Z,75.5
2018-02-10T12:02:20.367Z,75.2
2018-02-10T12:03:22.800Z,74.5
2018-02-10T12:04:25.527Z,73.9
2018-02-10T12:05:27.970Z,73.7
2018-02-10T12:06:30.412Z,73.8
2018-02-10T12:07:33.131Z,74.3
2018-02-10T12:08:35.568Z,74.8
2018-02-10T12:09:38.000Z,75.2
2018-02-10T12:10:40.447Z,74.9
2018-02-10T12:11:42.881Z,74.7
2018-02-10T12:12:45.321Z,74.7
2018-02-10T12:13:47.751Z,74.8
2018-02-10T12:14:50.182Z,74.8
2018-02-10T12:15:52.620Z,74.9
2018-02-10T12:16:55.060Z,74.4
2018-02-10T12:17:57.484Z,74.4
2018-02-10T12:19:00.198Z,74.2
2018-02-10T12:20:02.681Z,73.6
2018-02-10T12:21:05.383Z,73.8
2018-02-10T12:22:07.826Z,73.5
2018-02-10T12:23:10.547Z,73.5
2018-02-10T12:24:12.976Z,73.7
2018-02-10T12:25:15.782Z,73.3
2018-02-10T12:26:18.182Z,73.5
2018-02-10T12:27:20.613Z,73.4
2018-02-10T12:28:23.055Z,73.8
2018-02-10T12:29:25.485Z,74.2
2018-02-10T12:30:27.921Z,74.1
2018-02-10T12:31:30.358Z,74.1
2018-02-10T12:32:32.799Z,73.8
2018-02-10T12:33:35.231Z,73.5
2018-02-10T12:34:37.952Z,72.6
2018-02-10T12:35:40.394Z,73
2018-02-10T12:36:42.835Z,73
2018-02-10T12:37:45.266Z,72.7
2018-02-10T12:38:47.700Z,72.4
2018-02-10T12:39:50.132Z,72.5
2018-02-10T12:40:52.580Z,72.9
2018-02-10T12:41:55.016Z,72.5
2018-02-10T12:42:57.453Z,72.4
2018-02-10T12:43:59.886Z,72.9
2018-02-10T12:45:02.330Z,73.2
2018-02-10T12:46:04.760Z,72.9
2018-02-10T12:47:07.203Z,73.1
2018-02-10T12:48:09.933Z,73.3
2018-02-10T12:49:12.380Z,73.1
2018-02-10T12:50:14.866Z,72.6
2018-02-10T12:51:17.253Z,72.1
2018-02-10T12:52:19.681Z,72.2
2018-02-10T12:53:22.122Z,72.6
2018-02-10T12:54:24.567Z,72.7
2018-02-10T12:55:26.999Z,72.8
2018-02-10T12:56:29.429Z,72.7
2018-02-10T12:57:31.870Z,73.1
2018-02-10T12:58:34.303Z,72.9
2018-02-10T12:59:36.802Z,72.9
2018-02-10T13:00:39.522Z,72.7
2018-02-10T13:01:41.963Z,72.7
2018-02-10T13:02:44.398Z,72.9
2018-02-10T13:03:47.127Z,72.7
2018-02-10T13:04:49.566Z,72.6
2018-02-10T13:05:52.003Z,72.4
2018-02-10T13:06:54.439Z,72.3
2018-02-10T13:07:56.876Z,71.9
2018-02-10T13:08:59.295Z,71.9
2018-02-10T13:10:01.739Z,71.7
2018-02-10T13:11:04.469Z,72
2018-02-10T13:12:06.906Z,71.9
2018-02-10T13:13:09.335Z,71.7
2018-02-10T13:14:11.773Z,71.3
2018-02-10T13:15:14.199Z,70.6
2018-02-10T13:16:16.924Z,70.3
2018-02-10T13:17:19.356Z,70.3
2018-02-10T13:18:21.786Z,70
2018-02-10T13:19:24.229Z,69.6
2018-02-10T13:20:26.666Z,70
2018-02-10T13:21:29.100Z,70.4
2018-02-10T13:22:31.542Z,70.9
2018-02-10T13:23:33.972Z,70.7
2018-02-10T13:24:36.406Z,70.3
2018-02-10T13:25:38.845Z,70.4
2018-02-10T13:26:41.289Z,70.2
2018-02-10T13:27:43.998Z,70.5
2018-02-10T13:28:46.446Z,70.6
2018-02-10T13:29:49.169Z,70.6
2018-02-10T13:30:51.602Z,70.5
2018-02-10T13:31:54.045Z,70.5
2018-02-10T13:32:56.476Z,70.9
2018-02-10T13:33:59.184Z,71.2
2018-02-10T13:35:01.640Z,71.1
2018-02-10T13:36:04.060Z,71.2
2018-02-10T13:37:06.485Z,71.5
2018-02-10T13:38:08.925Z,71.9
2018-02-10T13:39:11.635Z,72.1
2018-02-10T13:40:14.080Z,72.2
2018-02-10T13:41:16.514Z,72.1
2018-02-10T13:42:18.939Z,72.2
2018-02-10T13:43:21.371Z,72.3
2018-02-10T13:44:23.800Z,72.5
2018-02-10T13:45:26.240Z,72.3
2018-02-10T13:46:28.960Z,72.1
2018-02-10T13:47:31.387Z,72.1
2018-02-10T13:48:33.829Z,72.3
2018-02-10T13:49:36.276Z,72.2
2018-02-10T13:50:38.717Z,72.1
2018-02-10T13:51:41.149Z,71.7
2018-02-10T13:52:43.578Z,71.6
2018-02-10T13:53:46.014Z,71.3
2018-02-10T13:54:48.444Z,70.7
2018-02-10T13:55:50.881Z,70.4
2018-02-10T13:56:53.320Z,70.4